Time;durP1;ratioP1;P1;durP2;ratioP2;P2;SDS_P1;SDS_P2;PMS_P1;PMS_P2;Temp;Humidity;BMP_temperature;BMP_pressure;BME280_temperature;BME280_humidity;BME280_pressure;Samples;Min_cycle;Max_cycle;Signal;HPM_P1;HPM_P2
2021/10/07 00:01:33;;;;;;;5.33;4.20;;;;;;;9.13;58.14;103201.72;5065547;28;20410;-63
2021/10/07 00:03:59;;;;;;;6.07;3.63;;;;;;;9.12;58.07;103165.44;5095197;28;20039;-63
2021/10/07 00:06:24;;;;;;;6.47;4.07;;;;;;;9.16;56.92;103206.84;5112742;28;20040;-63
2021/10/07 00:08:50;;;;;;;8.37;3.50;;;;;;;9.12;57.68;103200.00;5093871;28;20506;-64
2021/10/07 00:11:16;;;;;;;9.27;4.03;;;;;;;8.61;57.76;103109.22;5109916;28;20388;-63
2021/10/07 00:13:42;;;;;;;5.80;3.80;;;;;;;9.04;57.71;103205.81;5080047;28;20038;-62
2021/10/07 00:16:08;;;;;;;6.00;3.90;;;;;;;8.78;57.75;103175.47;5092313;28;20059;-63
2021/10/07 00:18:38;;;;;;;5.00;3.80;;;;;;;8.98;57.58;103195.53;5126855;27;20085;-66
2021/10/07 00:21:04;;;;;;;3.90;3.50;;;;;;;8.97;58.06;103207.97;5112572;28;20059;-66
2021/10/07 00:23:32;;;;;;;6.03;3.33;;;;;;;8.65;58.63;103137.28;5094031;28;20036;-67
2021/10/07 00:25:57;;;;;;;4.70;3.75;;;;;;;8.95;58.64;103193.03;5112401;28;20456;-64
2021/10/07 00:28:24;;;;;;;8.10;3.90;;;;;;;8.98;58.35;103203.53;5112440;28;20055;-61
2021/10/07 00:30:52;;;;;;;6.10;4.30;;;;;;;8.91;57.89;103189.72;5078110;28;20425;-62
2021/10/07 00:33:26;;;;;;;6.05;4.35;;;;;;;8.91;58.29;103197.69;5112867;28;20406;-61
2021/10/07 00:39:05;;;;;;;6.05;3.90;;;;;;;8.79;58.35;103177.19;5100509;28;20036;-62
2021/10/07 00:41:39;;;;;;;9.43;5.40;;;;;;;8.81;58.69;103196.56;5084037;28;20126;-64
2021/10/07 00:44:05;;;;;;;5.60;3.57;;;;;;;8.75;58.63;103196.91;5115609;28;20036;-63
2021/10/07 00:46:31;;;;;;;5.80;4.00;;;;;;;8.69;58.78;103197.28;5113575;28;20056;-63
2021/10/07 00:48:59;;;;;;;13.30;4.73;;;;;;;8.67;58.56;103204.47;5112657;28;20043;-61
2021/10/07 00:51:25;;;;;;;5.97;4.07;;;;;;;8.63;59.38;103189.66;5112689;28;20390;-63
2021/10/07 00:53:51;;;;;;;6.10;4.93;;;;;;;8.56;58.88;103189.19;5094645;28;20036;-63
2021/10/07 00:56:19;;;;;;;8.50;4.13;;;;;;;8.57;59.37;103198.00;5077306;28;20058;-62
2021/10/07 00:58:45;;;;;;;7.88;4.03;;;;;;;8.45;59.77;103188.09;5112802;28;20039;-64
2021/10/07 01:01:10;;;;;;;4.83;3.93;;;;;;;8.46;59.29;103187.16;5094734;28;20031;-63
2021/10/07 01:03:36;;;;;;;7.73;4.07;;;;;;;8.24;59.65;103169.78;5112735;28;20046;-64
2021/10/07 01:06:02;;;;;;;4.50;3.73;;;;;;;8.46;59.56;103200.44;5112173;28;20042;-62
2021/10/07 01:08:27;;;;;;;5.67;4.20;;;;;;;8.15;59.58;103149.09;5077443;28;20042;-62
2021/10/07 01:10:53;;;;;;;4.93;4.30;;;;;;;8.01;59.58;103131.28;5077274;28;20031;-62
2021/10/07 01:13:18;;;;;;;4.37;3.90;;;;;;;8.28;59.74;103184.59;5077365;28;20031;-62
2021/10/07 01:15:44;;;;;;;8.00;4.17;;;;;;;8.25;60.85;103202.50;5112221;28;20042;-63
2021/10/07 01:18:09;;;;;;;4.60;4.07;;;;;;;8.21;60.28;103200.97;5112314;28;20031;-62
2021/10/07 01:20:37;;;;;;;6.47;5.07;;;;;;;7.94;60.80;103171.53;5098364;28;20035;-64
2021/10/07 01:23:02;;;;;;;4.20;3.80;;;;;;;8.11;60.89;103198.00;5107175;28;20121;-63
2021/10/07 01:25:32;;;;;;;5.83;4.13;;;;;;;8.08;61.04;103206.09;5089031;28;20028;-62
2021/10/07 01:27:58;;;;;;;8.50;4.40;;;;;;;7.99;61.26;103185.41;5091355;28;20044;-62
2021/10/07 01:30:23;;;;;;;4.37;3.80;;;;;;;8.08;61.06;103214.06;5106805;28;20127;-62
2021/10/07 01:32:49;;;;;;;5.43;4.53;;;;;;;7.97;61.45;103192.59;5073443;28;20034;-63
2021/10/07 01:35:14;;;;;;;5.03;4.50;;;;;;;7.97;61.33;103219.97;5073519;28;20074;-62
2021/10/07 01:37:39;;;;;;;6.53;4.40;;;;;;;7.94;60.98;103187.47;5091806;28;20476;-65
2021/10/07 01:40:05;;;;;;;8.93;4.20;;;;;;;7.97;61.73;103219.13;5107824;28;20069;-65
2021/10/07 01:42:31;;;;;;;7.93;4.97;;;;;;;7.93;61.31;103206.97;5073451;28;20085;-62
2021/10/07 01:44:56;;;;;;;5.20;3.80;;;;;;;7.68;61.73;103162.38;5073284;28;20067;-62
2021/10/07 01:47:22;;;;;;;6.13;3.60;;;;;;;7.83;62.08;103195.19;5091679;28;20044;-61
2021/10/07 01:49:47;;;;;;;4.60;3.80;;;;;;;7.86;62.39;103190.53;5107180;28;20031;-61
2021/10/07 01:52:13;;;;;;;5.10;3.73;;;;;;;7.75;61.86;103180.50;5090312;28;20035;-62
2021/10/07 01:54:38;;;;;;;5.40;3.60;;;;;;;7.83;62.32;103195.19;5091345;28;20032;-62
2021/10/07 01:57:04;;;;;;;6.03;4.90;;;;;;;7.82;61.98;103193.47;5090879;28;20643;-62
2021/10/07 01:59:29;;;;;;;4.17;3.37;;;;;;;7.75;61.70;103185.81;5072500;28;20044;-62
2021/10/07 02:01:55;;;;;;;5.77;4.03;;;;;;;7.76;62.10;103190.19;5088768;28;20051;-63
2021/10/07 02:04:20;;;;;;;4.83;3.40;;;;;;;7.71;62.57;103196.69;5090196;28;20357;-62
2021/10/07 02:06:45;;;;;;;6.80;4.90;;;;;;;7.68;62.94;103191.56;5089744;28;20369;-62
2021/10/07 02:09:11;;;;;;;7.47;4.30;;;;;;;7.58;62.53;103177.97;5105713;28;20062;-63
2021/10/07 02:11:36;;;;;;;7.60;4.07;;;;;;;7.62;62.17;103192.75;5090110;28;20052;-65
2021/10/07 02:14:02;;;;;;;6.40;4.43;;;;;;;7.63;62.06;103197.13;5089992;28;20062;-62
2021/10/07 02:16:33;;;;;;;5.40;3.97;;;;;;;7.54;62.97;103179.06;5089886;28;20391;-64
2021/10/07 02:18:58;;;;;;;9.37;6.13;;;;;;;7.58;62.61;103193.88;5073336;28;20085;-61
2021/10/07 02:21:23;;;;;;;6.73;4.20;;;;;;;7.57;62.89;103178.03;5105175;28;20028;-62
2021/10/07 02:23:49;;;;;;;6.13;4.33;;;;;;;7.50;62.71;103182.81;5089321;28;20035;-62
2021/10/07 02:26:14;;;;;;;5.33;4.00;;;;;;;7.25;62.85;103146.19;5054786;28;20699;-67
2021/10/07 02:28:40;;;;;;;7.77;4.20;;;;;;;7.48;62.42;103179.38;5054239;28;20478;-65
2021/10/07 02:31:05;;;;;;;5.80;4.00;;;;;;;7.54;62.85;103179.06;5089657;28;20480;-63
2021/10/07 02:33:30;;;;;;;6.13;4.50;;;;;;;7.50;62.79;103193.41;5091877;28;20036;-65
2021/10/07 02:35:56;;;;;;;8.03;4.70;;;;;;;7.44;63.41;103183.13;5093538;28;20020;-62
2021/10/07 02:38:21;;;;;;;6.47;4.43;;;;;;;7.47;62.63;103182.97;5076274;28;20024;-64
2021/10/07 02:40:47;;;;;;;4.53;3.60;;;;;;;7.43;63.31;103171.69;5110522;28;20048;-63
2021/10/07 02:43:12;;;;;;;4.87;4.07;;;;;;;7.44;63.15;103180.50;5076763;28;20036;-64
2021/10/07 02:45:38;;;;;;;6.03;4.47;;;;;;;7.34;63.08;103182.78;5076752;28;20027;-61
2021/10/07 02:48:03;;;;;;;7.37;4.80;;;;;;;7.44;63.44;103177.84;5076645;28;20094;-63
2021/10/07 02:50:29;;;;;;;5.77;4.03;;;;;;;7.42;63.21;103180.56;5094840;28;20044;-64
2021/10/07 02:52:55;;;;;;;6.90;4.40;;;;;;;7.35;63.29;103181.00;5094621;28;20028;-65
2021/10/07 02:55:20;;;;;;;5.20;3.97;;;;;;;7.34;63.76;103179.28;5076900;28;20101;-64
2021/10/07 02:57:46;;;;;;;6.30;4.23;;;;;;;7.28;63.48;103161.91;5076508;28;20036;-61
2021/10/07 03:00:13;;;;;;;6.13;4.10;;;;;;;7.25;63.55;103167.41;5076979;28;20055;-63
2021/10/07 03:02:38;;;;;;;7.43;4.07;;;;;;;7.30;63.00;103186.56;5077139;28;20093;-62
2021/10/07 03:05:04;;;;;;;8.93;4.83;;;;;;;7.26;63.22;103189.44;5094816;28;20052;-62
2021/10/07 03:07:29;;;;;;;7.43;4.80;;;;;;;7.25;63.29;103185.94;5111236;28;20028;-63
2021/10/07 03:09:55;;;;;;;8.73;4.23;;;;;;;6.95;63.53;103140.72;5094001;28;20020;-63
2021/10/07 03:12:20;;;;;;;5.83;4.47;;;;;;;7.23;63.41;103193.13;5095601;28;20473;-63
2021/10/07 03:14:46;;;;;;;5.30;4.03;;;;;;;7.26;63.60;103186.81;5095829;28;20074;-63
2021/10/07 03:17:12;;;;;;;8.70;4.50;;;;;;;7.04;64.07;103163.22;5094789;28;20031;-67
2021/10/07 03:19:37;;;;;;;6.77;4.97;;;;;;;7.23;63.33;103197.53;5077290;28;20035;-67
2021/10/07 03:22:03;;;;;;;7.47;4.60;;;;;;;7.21;63.81;103186.16;5093109;28;20035;-67
2021/10/07 03:24:29;;;;;;;6.97;4.33;;;;;;;7.18;63.83;103183.69;5076221;28;20386;-66
2021/10/07 03:26:54;;;;;;;5.97;3.87;;;;;;;7.11;64.32;103186.66;5093845;28;20462;-66
2021/10/07 03:29:20;;;;;;;11.07;4.83;;;;;;;7.09;64.68;103199.13;5094134;28;20036;-68
2021/10/07 03:31:45;;;;;;;6.70;3.93;;;;;;;7.02;64.35;103171.25;5075938;28;20028;-65
2021/10/07 03:34:10;;;;;;;6.27;4.17;;;;;;;7.00;64.40;103181.09;5076355;28;20036;-64
2021/10/07 03:36:36;;;;;;;13.67;5.13;;;;;;;7.02;63.98;103195.09;5093106;28;20464;-62
2021/10/07 03:39:02;;;;;;;7.43;5.23;;;;;;;7.02;64.38;103187.16;5093873;28;20066;-66
2021/10/07 03:41:27;;;;;;;5.83;4.13;;;;;;;6.97;64.33;103194.50;5094088;28;20031;-62
2021/10/07 03:43:53;;;;;;;9.27;4.80;;;;;;;6.70;64.55;103159.69;5110537;28;20043;-63
2021/10/07 03:46:18;;;;;;;5.43;4.50;;;;;;;6.88;64.45;103194.94;5109951;28;20406;-66
2021/10/07 03:48:44;;;;;;;5.10;4.13;;;;;;;6.82;64.97;103184.69;5109092;28;20431;-63
2021/10/07 03:51:10;;;;;;;6.17;4.73;;;;;;;6.75;65.01;103172.69;5092092;28;20044;-63
2021/10/07 03:53:35;;;;;;;4.80;4.30;;;;;;;6.84;65.16;103199.56;5108539;28;20028;-63
2021/10/07 03:56:01;;;;;;;5.50;4.30;;;;;;;6.81;64.55;103207.66;5109232;28;20028;-66
2021/10/07 03:58:26;;;;;;;5.90;4.70;;;;;;;6.80;64.98;103198.00;5074420;28;20059;-65
2021/10/07 04:00:51;;;;;;;10.90;5.13;;;;;;;6.75;65.23;103193.88;5092158;28;20040;-67
2021/10/07 04:03:17;;;;;;;6.37;4.60;;;;;;;6.29;65.59;103123.88;5074792;28;20077;-63
2021/10/07 04:05:42;;;;;;;6.50;5.20;;;;;;;6.68;65.26;103189.84;5075689;28;20482;-61
2021/10/07 04:08:08;;;;;;;4.87;4.23;;;;;;;6.60;65.40;103194.66;5075872;28;20039;-62
2021/10/07 04:10:33;;;;;;;4.83;4.30;;;;;;;6.62;65.76;103192.78;5092501;28;20039;-63
2021/10/07 04:12:59;;;;;;;8.07;5.47;;;;;;;6.63;65.14;103191.84;5075923;28;20035;-62
2021/10/07 04:15:24;;;;;;;6.67;4.93;;;;;;;6.61;66.07;103191.06;5058740;28;20078;-62
2021/10/07 04:17:50;;;;;;;5.83;4.47;;;;;;;6.52;65.75;103181.81;5074046;28;20039;-61
2021/10/07 04:20:15;;;;;;;10.03;5.10;;;;;;;6.50;66.12;103184.53;5093340;28;20028;-61
2021/10/07 04:22:41;;;;;;;6.73;4.40;;;;;;;6.56;65.96;103198.38;5093106;28;20036;-62
2021/10/07 04:25:06;;;;;;;6.33;4.37;;;;;;;6.56;65.82;103199.25;5075337;28;20032;-63
2021/10/07 04:27:32;;;;;;;7.87;4.77;;;;;;;6.52;66.30;103201.19;5074757;28;20193;-61
2021/10/07 04:29:59;;;;;;;8.90;5.10;;;;;;;6.53;65.81;103205.56;5074255;28;20085;-61
2021/10/07 04:32:24;;;;;;;7.27;5.17;;;;;;;6.45;66.00;103198.94;5092749;28;20032;-63
2021/10/07 04:34:50;;;;;;;7.00;5.30;;;;;;;6.55;66.10;103209.91;5108475;28;20349;-61
2021/10/07 04:37:15;;;;;;;10.07;4.70;;;;;;;6.52;65.67;103210.94;5093145;28;20522;-62
2021/10/07 04:39:41;;;;;;;9.77;6.27;;;;;;;6.57;66.28;103210.69;5092442;28;20054;-62
2021/10/07 04:42:06;;;;;;;7.20;5.23;;;;;;;6.55;66.04;103215.22;5092765;28;20023;-62
2021/10/07 04:44:32;;;;;;;8.50;5.10;;;;;;;6.44;66.19;103195.44;5092938;28;20040;-61
2021/10/07 04:46:57;;;;;;;12.20;5.33;;;;;;;6.50;66.19;103202.19;5092162;28;20040;-62
2021/10/07 04:49:22;;;;;;;5.73;4.47;;;;;;;6.53;66.26;103216.13;5074075;28;20040;-62
2021/10/07 04:51:48;;;;;;;6.80;5.50;;;;;;;6.56;66.08;103219.56;5092757;28;20032;-61
2021/10/07 04:54:13;;;;;;;10.57;5.83;;;;;;;6.28;65.51;103167.13;5074313;28;20039;-61
2021/10/07 04:56:39;;;;;;;9.80;5.07;;;;;;;6.55;65.82;103212.56;5092508;28;20039;-61
2021/10/07 04:59:04;;;;;;;7.00;5.60;;;;;;;6.57;65.81;103222.13;5092358;28;20050;-62
2021/10/07 05:01:30;;;;;;;12.63;5.70;;;;;;;6.59;65.70;103217.63;5091247;28;20077;-63
2021/10/07 05:03:55;;;;;;;8.37;6.50;;;;;;;6.57;65.96;103219.50;5091707;28;20032;-61
2021/10/07 05:06:21;;;;;;;5.60;4.93;;;;;;;6.63;65.31;103231.56;5073946;28;20039;-63
2021/10/07 05:08:46;;;;;;;8.77;6.07;;;;;;;6.66;65.22;103244.66;5108266;28;20047;-60
2021/10/07 05:11:11;;;;;;;6.77;4.80;;;;;;;6.68;65.57;103237.50;5092031;28;20040;-61
2021/10/07 05:13:37;;;;;;;9.83;5.80;;;;;;;6.16;65.15;103153.59;5074160;28;20031;-65
2021/10/07 05:16:02;;;;;;;8.40;5.77;;;;;;;6.72;65.29;103236.41;5092134;28;20035;-62
2021/10/07 05:18:28;;;;;;;7.87;5.53;;;;;;;6.74;65.14;103245.13;5091619;28;20040;-62
2021/10/07 05:20:53;;;;;;;9.27;5.30;;;;;;;6.53;64.93;103200.25;5073899;28;20032;-61
2021/10/07 05:23:19;;;;;;;8.13;5.67;;;;;;;6.82;64.69;103245.59;5074152;28;20028;-62
2021/10/07 05:25:44;;;;;;;7.63;5.37;;;;;;;6.57;64.98;103197.44;5107626;28;20337;-62
2021/10/07 05:28:10;;;;;;;6.97;5.13;;;;;;;6.88;64.54;103253.22;5108187;28;20081;-61
2021/10/07 05:30:35;;;;;;;9.70;5.53;;;;;;;6.60;64.79;103205.25;5091511;28;20039;-62
2021/10/07 05:33:01;;;;;;;12.43;5.93;;;;;;;6.80;64.56;103223.63;5091728;28;20051;-61
2021/10/07 05:35:26;;;;;;;6.57;5.47;;;;;;;6.97;63.91;103260.72;5108465;28;20031;-63
2021/10/07 05:37:52;;;;;;;11.33;5.90;;;;;;;6.99;64.17;103250.91;5073852;28;20530;-63
2021/10/07 05:40:17;;;;;;;8.03;5.50;;;;;;;6.91;63.77;103231.88;5074907;28;20153;-62
2021/10/07 05:42:43;;;;;;;9.20;6.40;;;;;;;6.94;63.25;103226.44;5093102;28;20465;-64
2021/10/07 05:45:11;;;;;;;8.63;5.40;;;;;;;7.16;63.14;103257.97;5095802;28;20462;-61
2021/10/07 05:47:38;;;;;;;10.93;5.60;;;;;;;7.16;63.91;103242.06;5095870;28;20544;-66
2021/10/07 05:50:05;;;;;;;10.97;5.37;;;;;;;7.31;62.93;103253.69;5072478;28;20032;-64
2021/10/07 05:52:30;;;;;;;7.07;6.10;;;;;;;8.04;61.43;103257.63;5055304;28;20033;-65
2021/10/07 05:54:57;;;;;;;7.97;5.67;;;;;;;9.29;57.38;103271.63;5039761;28;20024;-61
2021/10/07 05:57:24;;;;;;;10.27;5.87;;;;;;;10.41;53.81;103262.81;5091171;28;20035;-64
2021/10/07 05:59:50;;;;;;;11.93;5.50;;;;;;;10.93;52.38;103244.16;5073090;28;20039;-62
2021/10/07 06:02:15;;;;;;;10.57;5.97;;;;;;;11.77;49.92;103259.63;5091979;28;20471;-63
2021/10/07 06:04:40;;;;;;;10.27;5.20;;;;;;;12.06;48.21;103221.00;5073700;28;20040;-63
2021/10/07 06:07:06;;;;;;;10.37;6.80;;;;;;;12.44;47.83;103254.75;5090700;28;20106;-64
2021/10/07 06:09:31;;;;;;;11.90;7.87;;;;;;;13.15;45.94;103261.78;5094339;28;20062;-61
2021/10/07 06:11:56;;;;;;;10.20;6.47;;;;;;;13.09;45.00;103211.44;5098163;28;20050;-62
2021/10/07 06:14:23;;;;;;;11.63;6.07;;;;;;;13.25;45.13;103232.53;5116050;28;20040;-63
2021/10/07 06:16:52;;;;;;;10.07;5.87;;;;;;;13.67;44.36;103272.97;5115574;28;20114;-63
2021/10/07 06:19:18;;;;;;;10.87;7.77;;;;;;;14.21;43.53;103259.63;5064949;28;20028;-62
2021/10/07 06:21:43;;;;;;;8.43;6.73;;;;;;;14.26;42.81;103247.53;5114773;28;20374;-63
2021/10/07 06:24:09;;;;;;;9.83;5.93;;;;;;;14.25;42.84;103255.72;5095574;28;20036;-61
2021/10/07 06:26:34;;;;;;;8.73;5.77;;;;;;;13.99;42.96;103222.16;5094635;28;20023;-64
2021/10/07 06:28:59;;;;;;;18.23;11.27;;;;;;;14.13;42.62;103268.28;5094872;28;20054;-62
2021/10/07 06:31:25;;;;;;;11.20;5.93;;;;;;;13.70;43.78;103260.19;5095380;28;20040;-62
2021/10/07 06:33:50;;;;;;;9.57;6.30;;;;;;;14.44;42.35;103272.00;5080557;28;20035;-62
2021/10/07 06:36:19;;;;;;;10.90;6.83;;;;;;;14.94;41.51;103258.84;5097554;28;20031;-62
2021/10/07 06:38:44;;;;;;;11.38;5.90;;;;;;;15.27;40.33;103233.63;5113422;28;20472;-64
2021/10/07 06:41:10;;;;;;;6.57;5.83;;;;;;;15.74;39.55;103259.03;5114641;28;20046;-63
2021/10/07 06:43:35;;;;;;;9.67;5.30;;;;;;;15.95;38.94;103269.72;5097516;28;20080;-62
2021/10/07 06:46:00;;;;;;;9.30;6.10;;;;;;;15.88;38.84;103270.41;5115117;28;20055;-64
2021/10/07 06:48:26;;;;;;;11.00;5.93;;;;;;;16.54;37.64;103266.16;5097424;28;20026;-63
2021/10/07 06:50:51;;;;;;;20.40;10.83;;;;;;;16.17;37.95;103268.63;5046043;28;20450;-60
2021/10/07 06:53:17;;;;;;;7.83;6.07;;;;;;;15.74;38.96;103267.09;5099972;28;20388;-63
2021/10/07 06:55:43;;;;;;;8.70;6.03;;;;;;;16.16;38.14;103272.31;5095096;28;20062;-64
2021/10/07 06:58:08;;;;;;;10.53;6.53;;;;;;;16.14;38.04;103268.91;5104424;28;20031;-63
2021/10/07 07:00:34;;;;;;;7.63;5.67;;;;;;;15.98;37.85;103241.72;5115545;28;20383;-61
2021/10/07 07:02:59;;;;;;;10.27;6.70;;;;;;;16.45;37.64;103268.81;5110642;28;20036;-61
2021/10/07 07:05:26;;;;;;;9.90;4.77;;;;;;;16.78;36.86;103273.84;5076610;28;20028;-61
2021/10/07 07:07:51;;;;;;;7.80;5.33;;;;;;;16.97;36.34;103260.34;5111385;28;20035;-62
2021/10/07 07:10:17;;;;;;;8.03;5.10;;;;;;;17.40;35.71;103267.06;5078651;28;20028;-62
2021/10/07 07:12:44;;;;;;;11.63;8.03;;;;;;;17.62;35.25;103269.34;5115735;28;20102;-65
2021/10/07 07:15:09;;;;;;;11.70;6.53;;;;;;;17.31;36.26;103252.59;5055717;28;20104;-63
2021/10/07 07:17:35;;;;;;;7.40;5.70;;;;;;;17.92;34.57;103283.59;5076806;28;20040;-64
2021/10/07 07:20:00;;;;;;;6.93;5.03;;;;;;;17.94;34.87;103266.28;5096963;28;20042;-63
2021/10/07 07:22:27;;;;;;;7.70;5.90;;;;;;;17.88;34.48;103239.91;5094067;28;20028;-66
2021/10/07 07:24:52;;;;;;;14.63;6.67;;;;;;;18.10;34.43;103265.63;5106029;28;20024;-63
2021/10/07 07:27:17;;;;;;;9.27;5.57;;;;;;;18.26;33.95;103267.66;5085217;28;20494;-66
2021/10/07 07:29:43;;;;;;;7.93;5.20;;;;;;;17.82;34.52;103269.31;5102584;28;20481;-64
2021/10/07 07:32:08;;;;;;;12.00;6.60;;;;;;;18.46;34.32;103262.94;5049867;28;20052;-65
2021/10/07 07:34:34;;;;;;;12.90;6.00;;;;;;;19.06;32.62;103241.53;5076048;28;20028;-65
2021/10/07 07:36:59;;;;;;;11.07;6.20;;;;;;;18.91;32.78;103230.47;5075114;28;20027;-64
2021/10/07 07:39:25;;;;;;;16.23;5.87;;;;;;;19.10;32.64;103253.75;5093866;28;20422;-66
2021/10/07 07:41:50;;;;;;;7.17;5.63;;;;;;;18.79;33.45;103245.22;5092395;28;20435;-64
2021/10/07 07:44:16;;;;;;;7.65;5.32;;;;;;;17.88;34.32;103249.84;5091980;28;20020;-68
2021/10/07 07:46:41;;;;;;;6.72;4.80;;;;;;;18.95;32.59;103236.41;5092124;28;20066;-63
2021/10/07 07:49:06;;;;;;;7.57;5.47;;;;;;;19.05;32.52;103258.75;5092645;28;20059;-67
2021/10/07 07:51:32;;;;;;;11.93;5.65;;;;;;;18.27;33.81;103243.22;5093979;28;20031;-67
2021/10/07 07:53:58;;;;;;;9.83;6.93;;;;;;;18.69;33.29;103261.50;5094230;28;20042;-64
2021/10/07 07:56:23;;;;;;;10.45;5.47;;;;;;;19.48;31.83;103247.88;5093181;28;20110;-63
2021/10/07 07:58:49;;;;;;;10.30;5.35;;;;;;;19.58;31.35;103257.75;5093908;28;20040;-66
2021/10/07 08:01:14;;;;;;;10.00;5.63;;;;;;;19.27;31.74;103227.66;5093923;28;20028;-62
2021/10/07 08:03:39;;;;;;;9.35;5.93;;;;;;;19.26;32.17;103253.84;5083850;28;20464;-63
2021/10/07 08:06:05;;;;;;;10.13;5.50;;;;;;;18.76;32.20;103219.38;5065730;28;20497;-67
2021/10/07 08:08:30;;;;;;;6.32;4.97;;;;;;;19.24;32.22;103246.91;5095945;28;20042;-64
2021/10/07 08:10:56;;;;;;;15.95;5.18;;;;;;;19.58;31.38;103236.13;5073757;28;20093;-64
2021/10/07 08:13:21;;;;;;;8.85;4.70;;;;;;;19.85;30.94;103260.25;5093499;28;20032;-65
2021/10/07 08:15:48;;;;;;;8.75;5.57;;;;;;;20.15;30.64;103250.69;5058874;28;20032;-68
2021/10/07 08:18:15;;;;;;;11.60;5.53;;;;;;;21.11;29.85;103252.81;5092012;28;20040;-63
2021/10/07 08:20:41;;;;;;;8.23;5.10;;;;;;;21.20;29.45;103247.19;5078198;28;20406;-61
2021/10/07 08:23:06;;;;;;;7.57;4.90;;;;;;;20.05;30.67;103247.28;5091265;28;20059;-63
2021/10/07 08:25:32;;;;;;;12.05;6.60;;;;;;;20.95;29.88;103250.94;5090472;28;20131;-65
2021/10/07 08:27:57;;;;;;;9.30;4.60;;;;;;;21.62;28.65;103241.47;5071923;28;20044;-63
2021/10/07 08:30:23;;;;;;;9.43;5.30;;;;;;;21.04;29.12;103241.78;5089456;28;20372;-61
2021/10/07 08:32:48;;;;;;;10.73;5.35;;;;;;;20.09;30.57;103241.38;5092004;28;20494;-62
2021/10/07 08:35:14;;;;;;;10.00;5.47;;;;;;;21.45;28.94;103255.28;5075035;28;20051;-62
2021/10/07 08:37:40;;;;;;;8.63;5.25;;;;;;;21.19;29.12;103259.06;5074719;28;20484;-61
2021/10/07 08:40:07;;;;;;;15.25;5.68;;;;;;;21.52;28.64;103240.84;5092844;28;20024;-61
2021/10/07 08:42:32;;;;;;;13.20;8.45;;;;;;;20.80;29.60;103250.78;5073227;28;20024;-61
2021/10/07 08:45:01;;;;;;;12.73;6.38;;;;;;;21.08;29.61;103243.13;5091444;28;20744;-64
2021/10/07 08:47:27;;;;;;;9.23;5.80;;;;;;;20.84;29.69;103251.31;5088231;28;20044;-62
2021/10/07 08:49:52;;;;;;;7.90;5.75;;;;;;;20.03;30.29;103208.75;5106534;28;20043;-64
2021/10/07 08:52:18;;;;;;;13.00;6.13;;;;;;;20.38;30.19;103231.97;5056542;28;20140;-66
2021/10/07 08:54:43;;;;;;;9.13;6.00;;;;;;;20.35;30.77;103229.59;5090224;28;20035;-65
2021/10/07 08:57:09;;;;;;;12.02;5.60;;;;;;;21.25;29.41;103234.00;5090937;28;20031;-63
2021/10/07 08:59:35;;;;;;;12.02;4.80;;;;;;;21.61;28.75;103237.09;5090430;28;20097;-61
2021/10/07 09:02:04;;;;;;;8.35;5.60;;;;;;;21.64;28.31;103230.47;5090712;28;20046;-62
2021/10/07 09:04:30;;;;;;;;;;;;;;;21.85;28.64;103235.28;5071165;28;20032;-64
2021/10/07 09:07:02;;;;;;;11.45;5.53;;;;;;;22.33;27.57;103220.59;5098383;28;19912;-62
2021/10/07 09:09:28;;;;;;;8.90;5.22;;;;;;;22.74;27.12;103233.84;5088072;28;20039;-61
2021/10/07 09:11:56;;;;;;;11.48;5.40;;;;;;;22.31;27.21;103195.50;5067669;28;20036;-66
2021/10/07 09:14:28;;;;;;;8.63;5.40;;;;;;;22.74;27.12;103225.69;5090324;28;20127;-66
2021/10/07 09:16:54;;;;;;;9.15;5.65;;;;;;;23.10;26.43;103204.13;5084715;28;20123;-64
2021/10/07 09:19:27;;;;;;;10.95;4.93;;;;;;;23.08;26.42;103215.19;5081844;28;20089;-62
2021/10/07 09:21:54;;;;;;;5.85;5.00;;;;;;;22.99;26.23;103229.91;5082438;28;20047;-62
2021/10/07 09:24:38;;;;;;;11.43;4.97;;;;;;;22.86;26.42;103224.28;5072400;28;20488;-66
2021/10/07 09:27:21;;;;;;;6.28;4.97;;;;;;;22.45;26.98;103221.00;5104759;28;20032;-64
2021/10/07 09:29:48;;;;;;;10.57;4.80;;;;;;;22.13;27.09;103224.81;5089833;28;20048;-67
2021/10/07 09:32:13;;;;;;;6.00;4.80;;;;;;;22.75;26.18;103233.66;5090064;28;20427;-63
2021/10/07 09:34:44;;;;;;;4.88;4.30;;;;;;;22.94;26.08;103218.75;5106478;28;20046;-61
2021/10/07 09:37:22;;;;;;;8.52;4.88;;;;;;;23.36;25.58;103211.81;5089747;28;20047;-61
2021/10/07 09:39:52;;;;;;;10.23;5.18;;;;;;;23.48;25.03;103221.22;5089898;28;20042;-60
2021/10/07 09:42:20;;;;;;;8.07;4.60;;;;;;;23.73;24.93;103210.88;5089632;28;20040;-63
2021/10/07 09:45:03;;;;;;;;;;;;;;;23.60;25.30;103217.00;5090337;28;20046;-62
2021/10/07 09:47:30;;;;;;;6.68;5.25;;;;;;;23.21;25.17;103230.88;5071441;28;19911;-66
2021/10/07 09:50:07;;;;;;;10.73;4.68;;;;;;;22.30;25.95;103177.53;5090344;28;20063;-63
2021/10/07 09:52:37;;;;;;;7.47;4.93;;;;;;;22.12;27.16;103220.41;5103558;28;20113;-61
2021/10/07 09:55:12;;;;;;;6.63;4.78;;;;;;;23.22;25.40;103223.56;5090265;28;20067;-63
2021/10/07 09:57:49;;;;;;;10.15;5.18;;;;;;;23.37;25.78;103213.50;5088425;28;20062;-63
2021/10/07 10:00:15;;;;;;;6.55;4.35;;;;;;;23.21;25.54;103227.31;5103247;28;20042;-62
2021/10/07 10:02:41;;;;;;;6.85;4.80;;;;;;;22.08;26.76;103221.78;5089776;28;20044;-64
2021/10/07 10:05:09;;;;;;;6.55;4.78;;;;;;;21.90;27.05;103222.88;5090494;28;20043;-62
2021/10/07 10:07:34;;;;;;;14.70;5.85;;;;;;;22.10;27.16;103217.03;5089878;28;20479;-64
2021/10/07 10:10:00;;;;;;;11.32;5.63;;;;;;;22.56;26.14;103205.16;5090192;28;20048;-62
2021/10/07 10:12:25;;;;;;;7.72;6.15;;;;;;;22.38;26.63;103214.63;5090244;28;20028;-62
2021/10/07 10:14:53;;;;;;;7.75;5.55;;;;;;;22.35;26.37;103225.84;5055650;28;20044;-63
2021/10/07 10:17:18;;;;;;;9.93;5.68;;;;;;;22.35;26.79;103207.69;5039123;28;20062;-68
2021/10/07 10:19:44;;;;;;;10.93;5.82;;;;;;;22.65;26.21;103210.50;5072099;28;20093;-62
2021/10/07 10:22:09;;;;;;;9.30;4.93;;;;;;;23.38;25.81;103207.03;5089711;28;20035;-61
2021/10/07 10:24:35;;;;;;;10.27;6.07;;;;;;;24.02;24.52;103210.81;5089047;28;20537;-63
2021/10/07 10:27:02;;;;;;;8.98;5.25;;;;;;;22.85;25.88;103207.13;5038372;28;20095;-65
2021/10/07 10:29:30;;;;;;;8.90;5.28;;;;;;;22.14;26.77;103186.63;5089588;28;20046;-62
2021/10/07 10:31:55;;;;;;;;;;;;;;;22.07;26.64;103206.53;5069969;28;20048;-62
2021/10/07 10:34:22;;;;;;;7.22;5.38;;;;;;;22.31;26.84;103205.53;5054357;28;20089;-67
2021/10/07 10:36:57;;;;;;;8.82;5.45;;;;;;;22.11;26.78;103180.72;5089601;28;20039;-62
2021/10/07 10:39:27;;;;;;;10.13;5.57;;;;;;;22.22;26.71;103210.16;5089477;28;20032;-64
2021/10/07 10:41:56;;;;;;;8.77;5.90;;;;;;;22.15;26.54;103177.47;5071712;28;20051;-66
2021/10/07 10:44:27;;;;;;;12.30;5.68;;;;;;;22.48;26.29;103180.75;5071678;28;20041;-64
2021/10/07 10:47:39;;;;;;;10.20;5.30;;;;;;;23.40;25.55;103222.13;5086660;28;20058;-63
2021/10/07 10:50:11;;;;;;;5.78;4.75;;;;;;;23.24;25.54;103180.72;5076148;28;20119;-63
2021/10/07 10:52:41;;;;;;;8.13;5.72;;;;;;;23.14;25.69;103205.47;5087443;28;20484;-63
2021/10/07 10:55:12;;;;;;;7.85;5.95;;;;;;;24.09;24.75;103216.31;5074287;28;20499;-63
2021/10/07 10:58:06;;;;;;;7.88;5.10;;;;;;;23.83;24.71;103208.69;5090857;28;20039;-62
2021/10/07 11:00:32;;;;;;;13.15;5.40;;;;;;;23.36;25.33;103209.94;5077702;28;20078;-62
2021/10/07 11:03:19;;;;;;;10.88;5.90;;;;;;;23.55;25.09;103203.09;5093110;28;20503;-66
2021/10/07 11:06:04;;;;;;;9.73;5.55;;;;;;;22.75;25.78;103205.66;5093324;28;20035;-66
2021/10/07 11:08:52;;;;;;;7.65;6.28;;;;;;;22.99;25.79;103196.44;5091019;28;20476;-65
2021/10/07 11:11:25;;;;;;;10.07;6.30;;;;;;;22.91;25.10;103175.66;5091310;28;20467;-64
2021/10/07 11:13:50;;;;;;;10.13;6.75;;;;;;;22.84;25.66;103199.13;5092835;28;20049;-65
2021/10/07 11:16:17;;;;;;;13.73;7.47;;;;;;;22.59;25.89;103197.66;5105727;28;20035;-66
2021/10/07 11:18:43;;;;;;;12.38;7.88;;;;;;;23.10;25.57;103202.25;5074605;28;20030;-61
2021/10/07 11:21:15;;;;;;;8.82;6.25;;;;;;;22.67;25.09;103200.28;5092608;28;20047;-62
2021/10/07 11:23:41;;;;;;;13.40;7.05;;;;;;;22.14;25.83;103213.78;5090523;28;20032;-61
2021/10/07 11:26:06;;;;;;;7.63;5.72;;;;;;;22.15;25.63;103203.75;5108690;28;20036;-61
2021/10/07 11:28:34;;;;;;;8.98;7.50;;;;;;;21.93;26.08;103206.22;5092661;28;20028;-66